Time;durP1;ratioP1;P1;durP2;ratioP2;P2;SDS_P1;SDS_P2;PMS_P1;PMS_P2;Temp;Humidity;BMP_temperature;BMP_pressure;BME280_temperature;BME280_humidity;BME280_pressure;Samples;Min_cycle;Max_cycle;Signal;HPM_P1;HPM_P2
2022/01/13 08:32:24;;;;;;;11.15;6.55;;;;;;;;;;6292095;22;20054;-81
2022/01/13 08:34:50;;;;;;;13.30;7.53;;;;;;;;;;6338681;22;20019;-80
2022/01/13 08:37:15;;;;;;;10.15;7.28;;;;;;;;;;6340124;22;20009;-81
2022/01/13 08:39:44;;;;;;;12.82;6.90;;;;;;;;;;6339958;22;20085;-81
2022/01/13 08:42:11;;;;;;;10.87;6.97;;;;;;;;;;6340282;22;20005;-81
2022/01/13 08:44:37;;;;;;;10.13;6.78;;;;;;;;;;6312581;22;20003;-81
2022/01/13 08:47:02;;;;;;;10.75;6.47;;;;;;;;;;6339942;22;20007;-80
2022/01/13 08:49:28;;;;;;;8.90;5.53;;;;;;;;;;6340025;22;20485;-82
2022/01/13 09:40:45;;;;;;;8.68;4.32;;;;;;;;;;6337679;22;20075;-80
2022/01/13 09:43:11;;;;;;;6.15;4.07;;;;;;;;;;6339667;22;20003;-81
2022/01/13 09:45:37;;;;;;;7.38;4.57;;;;;;;;;;6339558;22;20007;-81
2022/01/13 09:48:04;;;;;;;6.05;4.55;;;;;;;;;;6339712;22;20071;-81
2022/01/13 09:50:29;;;;;;;16.88;10.63;;;;;;;;;;6339654;22;20367;-83
2022/01/13 09:52:55;;;;;;;10.88;6.88;;;;;;;;;;6339500;22;20002;-82
2022/01/13 09:55:20;;;;;;;7.95;4.20;;;;;;;;;;6311856;22;20011;-82
2022/01/13 09:57:50;;;;;;;7.45;4.28;;;;;;;;;;6339456;22;19998;-83
2022/01/13 10:00:22;;;;;;;6.80;4.60;;;;;;;;;;6311569;22;20060;-83
2022/01/13 10:02:48;;;;;;;5.97;4.32;;;;;;;;;;6339494;22;20034;-83
2022/01/13 10:05:17;;;;;;;6.32;4.43;;;;;;;;;;6311926;22;19999;-82
2022/01/13 10:07:45;;;;;;;7.38;4.20;;;;;;;;;;6339439;22;19994;-83
2022/01/13 10:10:14;;;;;;;6.82;4.90;;;;;;;;;;6339628;22;19999;-83
2022/01/13 10:12:43;;;;;;;7.55;4.68;;;;;;;;;;6339495;22;19998;-83
2022/01/13 10:17:59;;;;;;;8.90;4.97;;;;;;;;;;6339619;22;20051;-82
2022/01/13 10:20:25;;;;;;;6.95;5.10;;;;;;;;;;6339549;22;20036;-85
2022/01/13 10:22:51;;;;;;;7.80;5.35;;;;;;;;;;6339423;22;20487;-85
2022/01/13 10:25:30;;;;;;;6.03;4.50;;;;;;;;;;6339471;22;20006;-84
2022/01/13 10:28:10;;;;;;;6.88;5.60;;;;;;;;;;6339418;22;20052;-85
2022/01/13 10:30:38;;;;;;;6.35;5.72;;;;;;;;;;6339859;22;20003;-85
2022/01/13 10:33:20;;;;;;;7.15;5.70;;;;;;;;;;6339790;22;20007;-84
2022/01/13 10:35:48;;;;;;;7.90;6.10;;;;;;;;;;6339384;22;20433;-82
2022/01/13 10:38:16;;;;;;;9.13;6.57;;;;;;;;;;6339458;22;20003;-82
2022/01/13 10:40:47;;;;;;;8.18;6.35;;;;;;;;;;6339117;22;20019;-82
2022/01/13 10:43:15;;;;;;;6.88;6.28;;;;;;;;;;6339229;22;20037;-82
2022/01/13 10:45:49;;;;;;;5.97;5.47;;;;;;;;;;6339291;22;20002;-82
2022/01/13 10:48:23;;;;;;;7.25;5.72;;;;;;;;;;6311259;22;20058;-81
2022/01/13 10:50:59;;;;;;;6.75;6.05;;;;;;;;;;6339246;22;20009;-80
2022/01/13 10:53:26;;;;;;;7.68;5.35;;;;;;;;;;6338953;22;20005;-81
2022/01/13 10:55:56;;;;;;;6.15;5.55;;;;;;;;;;6339416;22;20077;-80
2022/01/13 10:58:33;;;;;;;5.60;5.10;;;;;;;;;;6339237;22;19999;-81
2022/01/13 11:00:59;;;;;;;9.73;5.95;;;;;;;;;;6339485;22;20089;-82
2022/01/13 11:03:28;;;;;;;6.53;5.85;;;;;;;;;;6338918;22;20398;-81
2022/01/13 11:05:55;;;;;;;6.22;5.57;;;;;;;;;;6340686;22;20414;-80
2022/01/13 11:08:40;;;;;;;6.05;5.07;;;;;;;;;;6341144;22;20007;-81
2022/01/13 11:11:15;;;;;;;5.15;4.65;;;;;;;;;;6341207;22;20010;-80
2022/01/13 11:13:52;;;;;;;5.03;4.38;;;;;;;;;;6341397;22;20041;-81
2022/01/13 11:16:17;;;;;;;5.50;5.00;;;;;;;;;;6340932;22;19999;-81
2022/01/13 11:18:43;;;;;;;6.53;4.32;;;;;;;;;;6313336;22;20006;-81
2022/01/13 11:21:08;;;;;;;5.80;5.18;;;;;;;;;;6340938;22;20086;-81
2022/01/13 11:23:36;;;;;;;6.72;6.00;;;;;;;;;;6341057;22;20060;-83
2022/01/13 11:26:02;;;;;;;8.93;5.93;;;;;;;;;;6340750;22;20042;-82
2022/01/13 11:28:28;;;;;;;14.32;8.07;;;;;;;;;;6313387;22;20038;-82
2022/01/13 11:30:54;;;;;;;7.72;6.30;;;;;;;;;;6341081;22;19998;-81
2022/01/13 11:33:20;;;;;;;7.50;5.55;;;;;;;;;;6340849;22;20022;-82
2022/01/13 11:35:53;;;;;;;6.47;4.80;;;;;;;;;;6340118;22;20078;-81
2022/01/13 11:38:19;;;;;;;5.63;4.80;;;;;;;;;;6312791;22;20011;-82
2022/01/13 11:40:47;;;;;;;6.88;5.10;;;;;;;;;;6340227;22;20022;-78
2022/01/13 11:43:23;;;;;;;6.40;5.25;;;;;;;;;;6340149;22;20003;-79
2022/01/13 11:45:48;;;;;;;8.75;5.25;;;;;;;;;;6340201;22;20448;-81
2022/01/13 11:48:25;;;;;;;8.77;6.20;;;;;;;;;;6340550;22;19995;-81
2022/01/13 11:51:00;;;;;;;7.68;5.32;;;;;;;;;;6340548;22;20059;-82
2022/01/13 11:53:31;;;;;;;8.30;4.60;;;;;;;;;;6340743;22;20003;-81
2022/01/13 11:56:18;;;;;;;4.75;4.32;;;;;;;;;;6340250;22;19995;-82
2022/01/13 11:58:47;;;;;;;6.10;4.70;;;;;;;;;;6340482;22;20452;-80
2022/01/13 12:01:24;;;;;;;6.30;5.27;;;;;;;;;;6340255;22;20002;-80
2022/01/13 12:04:02;;;;;;;5.78;4.95;;;;;;;;;;6340794;22;20579;-80
2022/01/13 12:06:35;;;;;;;7.43;4.72;;;;;;;;;;6340436;22;19999;-81
2022/01/13 12:09:02;;;;;;;5.50;4.50;;;;;;;;;;6340527;22;20363;-81
2022/01/13 12:11:45;;;;;;;6.13;4.15;;;;;;;;;;6340541;22;20006;-81
2022/01/13 12:14:25;;;;;;;7.30;4.55;;;;;;;;;;6340531;22;20006;-81
2022/01/13 12:16:57;;;;;;;6.95;4.90;;;;;;;;;;6340093;22;20058;-81
2022/01/13 12:19:36;;;;;;;5.97;4.60;;;;;;;;;;6340471;22;19999;-81
2022/01/13 12:22:04;;;;;;;4.60;3.92;;;;;;;;;;6340303;22;20010;-80
2022/01/13 12:24:52;;;;;;;5.80;4.53;;;;;;;;;;6340502;22;20063;-82
2022/01/13 12:27:21;;;;;;;4.93;4.07;;;;;;;;;;6340562;22;20013;-82
2022/01/13 12:30:07;;;;;;;6.25;3.75;;;;;;;;;;6340530;22;20380;-81
2022/01/13 12:32:43;;;;;;;4.85;4.20;;;;;;;;;;6340180;22;20002;-84
2022/01/13 12:35:11;;;;;;;5.03;3.10;;;;;;;;;;6340453;22;20371;-85
2022/01/13 12:37:39;;;;;;;4.75;2.55;;;;;;;;;;6340344;22;20015;-84
2022/01/13 12:40:18;;;;;;;2.70;2.50;;;;;;;;;;6339905;22;20018;-85
2022/01/13 12:42:52;;;;;;;4.00;2.20;;;;;;;;;;6340117;22;20003;-85
2022/01/13 12:45:33;;;;;;;5.47;2.80;;;;;;;;;;6342564;22;20314;-85
2022/01/13 12:48:00;;;;;;;4.03;2.10;;;;;;;;;;6342563;22;20003;-85
2022/01/13 12:50:30;;;;;;;2.58;2.17;;;;;;;;;;6341778;22;20003;-86
2022/01/13 12:53:25;;;;;;;5.22;2.92;;;;;;;;;;6345150;22;20003;-85
2022/01/13 12:56:13;;;;;;;4.05;2.47;;;;;;;;;;6347257;22;20406;-86
2022/01/13 12:58:43;;;;;;;6.22;2.70;;;;;;;;;;6349360;22;20422;-88
2022/01/13 13:01:10;;;;;;;4.63;2.40;;;;;;;;;;6343378;22;20010;-85
2022/01/13 13:03:36;;;;;;;3.38;2.05;;;;;;;;;;6340043;22;20543;-87
2022/01/13 13:06:16;;;;;;;2.80;2.50;;;;;;;;;;6340072;22;20005;-87
2022/01/13 13:08:46;;;;;;;4.65;2.53;;;;;;;;;;6340085;22;20079;-86
2022/01/13 13:11:12;;;;;;;2.97;2.35;;;;;;;;;;6340074;22;20444;-87
2022/01/13 13:13:48;;;;;;;2.80;2.10;;;;;;;;;;6340164;22;20030;-87
2022/01/13 13:16:14;;;;;;;4.43;2.47;;;;;;;;;;6339396;22;19999;-83
2022/01/13 13:18:40;;;;;;;3.10;2.00;;;;;;;;;;6312065;22;20303;-87
2022/01/13 13:21:08;;;;;;;2.50;2.05;;;;;;;;;;6340479;22;20007;-87
2022/01/13 13:23:40;;;;;;;2.83;2.30;;;;;;;;;;6340315;22;20021;-86
2022/01/13 13:26:15;;;;;;;2.63;2.03;;;;;;;;;;6339969;22;20006;-87
2022/01/13 13:28:44;;;;;;;2.90;2.30;;;;;;;;;;6339785;22;20006;-86
2022/01/13 13:31:27;;;;;;;3.17;2.20;;;;;;;;;;6340189;22;20048;-87
2022/01/13 13:34:05;;;;;;;2.85;2.22;;;;;;;;;;6340236;22;19998;-87
2022/01/13 13:36:36;;;;;;;3.85;2.22;;;;;;;;;;6339842;22;19999;-87
2022/01/13 13:39:13;;;;;;;2.88;2.03;;;;;;;;;;6339776;22;20074;-87
2022/01/13 13:41:50;;;;;;;3.85;2.30;;;;;;;;;;6339867;22;20078;-87
2022/01/13 13:44:24;;;;;;;2.10;1.90;;;;;;;;;;6339798;22;20003;-87
2022/01/13 13:46:55;;;;;;;3.25;1.90;;;;;;;;;;6312181;22;20078;-86
2022/01/13 13:49:22;;;;;;;3.47;2.90;;;;;;;;;;6312393;22;20010;-88
2022/01/13 13:51:58;;;;;;;3.58;2.35;;;;;;;;;;6340253;22;20003;-87
2022/01/13 13:54:35;;;;;;;3.35;2.35;;;;;;;;;;6339706;22;20009;-86
2022/01/13 13:57:05;;;;;;;4.57;2.30;;;;;;;;;;6340008;22;19998;-87
2022/01/13 13:59:43;;;;;;;5.55;2.90;;;;;;;;;;6339720;22;20005;-86
2022/01/13 14:02:20;;;;;;;3.20;2.53;;;;;;;;;;6312159;22;20383;-87
2022/01/13 14:04:53;;;;;;;5.53;3.70;;;;;;;;;;6339748;22;20009;-87
2022/01/13 14:07:19;;;;;;;4.57;3.38;;;;;;;;;;6339694;22;20003;-87
2022/01/13 14:10:00;;;;;;;5.90;3.17;;;;;;;;;;6339990;22;20010;-86
2022/01/13 14:12:36;;;;;;;4.90;3.30;;;;;;;;;;6339911;22;20018;-87
2022/01/13 14:15:25;;;;;;;5.97;3.53;;;;;;;;;;6340219;22;20009;-87
2022/01/13 14:17:56;;;;;;;6.30;3.28;;;;;;;;;;6339731;22;19999;-86
2022/01/13 14:20:28;;;;;;;5.63;3.42;;;;;;;;;;6311759;22;20015;-85
2022/01/13 14:23:01;;;;;;;5.07;3.38;;;;;;;;;;6339520;22;20058;-85
2022/01/13 14:25:31;;;;;;;7.25;3.47;;;;;;;;;;6339896;22;20037;-87
2022/01/13 14:28:00;;;;;;;4.38;3.00;;;;;;;;;;6339622;22;20047;-87
2022/01/13 14:30:42;;;;;;;5.10;3.30;;;;;;;;;;6339824;22;20002;-86
2022/01/13 14:33:21;;;;;;;4.68;3.25;;;;;;;;;;6339479;22;20511;-85
2022/01/13 14:36:32;;;;;;;3.97;2.90;;;;;;;;;;6339824;22;20009;-85
2022/01/13 14:39:04;;;;;;;4.72;3.10;;;;;;;;;;6336949;22;20010;-86
2022/01/13 14:41:34;;;;;;;6.10;3.20;;;;;;;;;;6341263;22;20011;-85
2022/01/13 14:44:02;;;;;;;3.45;2.50;;;;;;;;;;6341477;22;20452;-86
2022/01/13 14:46:29;;;;;;;2.95;2.63;;;;;;;;;;6341232;22;19998;-88
2022/01/13 14:48:56;;;;;;;6.15;3.03;;;;;;;;;;6341353;22;20386;-86
2022/01/13 14:51:23;;;;;;;6.18;3.20;;;;;;;;;;6313538;22;19995;-87
2022/01/13 14:53:50;;;;;;;10.20;3.08;;;;;;;;;;6341325;22;20403;-86
2022/01/13 14:56:18;;;;;;;5.78;2.88;;;;;;;;;;6340885;22;19999;-84
2022/01/13 14:58:45;;;;;;;6.03;3.25;;;;;;;;;;6341289;22;20005;-84
2022/01/13 15:01:12;;;;;;;4.70;3.05;;;;;;;;;;6341089;22;20006;-87
2022/01/13 15:03:39;;;;;;;12.23;6.07;;;;;;;;;;6341175;22;20007;-87
2022/01/13 15:06:05;;;;;;;3.85;2.72;;;;;;;;;;6341036;22;19998;-85
2022/01/13 15:08:31;;;;;;;6.82;3.25;;;;;;;;;;6341080;22;20433;-85
2022/01/13 15:10:58;;;;;;;5.68;2.88;;;;;;;;;;6341010;22;20003;-84
2022/01/13 15:13:23;;;;;;;6.93;4.15;;;;;;;;;;6340867;22;20037;-86
2022/01/13 15:15:50;;;;;;;8.07;4.28;;;;;;;;;;6313626;22;20371;-86
2022/01/13 15:18:16;;;;;;;6.40;3.38;;;;;;;;;;6313440;22;20413;-86
2022/01/13 15:20:42;;;;;;;6.88;3.80;;;;;;;;;;6340910;22;20034;-86
2022/01/13 15:23:08;;;;;;;6.47;3.55;;;;;;;;;;6340936;22;20006;-86
2022/01/13 15:25:34;;;;;;;7.93;4.25;;;;;;;;;;6341191;22;20852;-85
2022/01/13 15:28:00;;;;;;;8.05;4.00;;;;;;;;;;6313574;22;20484;-86
2022/01/13 15:30:25;;;;;;;8.38;4.93;;;;;;;;;;6341091;22;19999;-85
2022/01/13 15:32:51;;;;;;;8.68;4.47;;;;;;;;;;6341036;22;20481;-84
2022/01/13 15:35:17;;;;;;;8.13;4.50;;;;;;;;;;6339499;22;20007;-86
2022/01/13 15:37:43;;;;;;;6.95;3.63;;;;;;;;;;6340933;22;20271;-87
2022/01/13 15:40:13;;;;;;;6.10;4.32;;;;;;;;;;6340723;22;20011;-85
2022/01/13 15:42:40;;;;;;;5.18;3.28;;;;;;;;;;6340697;22;20441;-86
2022/01/13 15:45:08;;;;;;;5.47;3.38;;;;;;;;;;6340926;22;20006;-87
2022/01/13 15:47:33;;;;;;;5.00;3.65;;;;;;;;;;6340901;22;20034;-86
2022/01/13 15:49:59;;;;;;;4.40;3.28;;;;;;;;;;6340185;22;20074;-86
2022/01/13 15:52:25;;;;;;;6.40;3.63;;;;;;;;;;6340776;22;20406;-86
2022/01/13 15:54:50;;;;;;;6.55;3.35;;;;;;;;;;6340689;22;20018;-84
2022/01/13 15:57:16;;;;;;;6.90;3.25;;;;;;;;;;6340931;22;20002;-87
2022/01/13 15:59:42;;;;;;;25.80;14.50;;;;;;;;;;6313203;22;20018;-85
2022/01/13 16:02:08;;;;;;;17.77;7.85;;;;;;;;;;6340947;22;20013;-87
2022/01/13 16:04:34;;;;;;;22.52;11.23;;;;;;;;;;6340745;22;20005;-87
2022/01/13 16:07:00;;;;;;;18.77;8.75;;;;;;;;;;6313233;22;20429;-86
2022/01/13 16:09:25;;;;;;;14.65;6.90;;;;;;;;;;6340997;22;20003;-86
2022/01/13 16:11:52;;;;;;;17.48;6.35;;;;;;;;;;6341322;22;20117;-87
2022/01/13 16:14:17;;;;;;;9.63;8.00;;;;;;;;;;6312966;22;20453;-83
2022/01/13 16:16:45;;;;;;;7.88;4.97;;;;;;;;;;6340570;22;20005;-86
2022/01/13 16:19:11;;;;;;;8.38;4.47;;;;;;;;;;6341032;22;20299;-86
2022/01/13 16:21:37;;;;;;;6.45;3.53;;;;;;;;;;6340596;22;20106;-87
2022/01/13 16:24:03;;;;;;;6.22;3.67;;;;;;;;;;6340528;22;20031;-86
2022/01/13 16:26:28;;;;;;;5.05;2.70;;;;;;;;;;6340366;22;20078;-85
2022/01/13 16:28:55;;;;;;;6.50;3.22;;;;;;;;;;6340084;22;20002;-87
2022/01/13 16:31:21;;;;;;;3.70;2.78;;;;;;;;;;6340032;22;20021;-87
2022/01/13 16:33:47;;;;;;;6.82;4.15;;;;;;;;;;6340324;22;20105;-88
2022/01/13 16:36:13;;;;;;;4.97;3.33;;;;;;;;;;6340010;22;20345;-86
2022/01/13 16:38:38;;;;;;;7.85;4.35;;;;;;;;;;6340734;22;20067;-86
2022/01/13 16:41:04;;;;;;;8.02;4.15;;;;;;;;;;6339968;22;20053;-86
2022/01/13 16:43:29;;;;;;;7.38;4.07;;;;;;;;;;6340469;22;20025;-87
2022/01/13 16:45:55;;;;;;;6.47;3.55;;;;;;;;;;6340127;22;20003;-86
2022/01/13 16:48:22;;;;;;;5.15;3.63;;;;;;;;;;6340076;22;20006;-87
2022/01/13 16:50:48;;;;;;;7.68;3.40;;;;;;;;;;6340287;22;20169;-86
2022/01/13 16:53:14;;;;;;;8.57;4.60;;;;;;;;;;6340342;22;19999;-87
2022/01/13 16:55:43;;;;;;;4.78;2.83;;;;;;;;;;6312497;22;20013;-86
2022/01/13 16:58:09;;;;;;;3.95;2.90;;;;;;;;;;6339997;22;20003;-85
2022/01/13 17:00:35;;;;;;;4.82;2.65;;;;;;;;;;6339816;22;20011;-84
2022/01/13 17:03:01;;;;;;;3.90;2.50;;;;;;;;;;6339793;22;20005;-82
2022/01/13 17:05:26;;;;;;;6.10;3.20;;;;;;;;;;6339762;22;19999;-82
2022/01/13 17:07:52;;;;;;;3.28;2.40;;;;;;;;;;6339782;22;20010;-83
2022/01/13 17:10:19;;;;;;;5.28;2.20;;;;;;;;;;6338290;22;20010;-84
2022/01/13 17:12:45;;;;;;;6.53;2.92;;;;;;;;;;6339648;22;20003;-84
2022/01/13 17:15:11;;;;;;;8.13;3.40;;;;;;;;;;6312293;22;20063;-84
2022/01/13 17:17:37;;;;;;;5.88;3.28;;;;;;;;;;6339818;22;19998;-83
2022/01/13 17:20:07;;;;;;;5.30;3.83;;;;;;;;;;6339533;22;20322;-82
2022/01/13 17:22:38;;;;;;;7.78;3.65;;;;;;;;;;6339697;22;19995;-83
2022/01/13 17:25:06;;;;;;;8.55;3.60;;;;;;;;;;6311958;22;20323;-83
2022/01/13 17:27:32;;;;;;;8.15;4.68;;;;;;;;;;6339603;22;20332;-82
2022/01/13 17:29:58;;;;;;;7.68;3.90;;;;;;;;;;6339674;22;20042;-82
2022/01/13 17:32:26;;;;;;;9.63;4.90;;;;;;;;;;6339644;22;20071;-83
2022/01/13 17:34:52;;;;;;;22.10;14.30;;;;;;;;;;6339754;22;20010;-82
2022/01/13 17:37:18;;;;;;;15.73;10.07;;;;;;;;;;6339468;22;20088;-83
2022/01/13 17:39:44;;;;;;;14.80;10.55;;;;;;;;;;6339389;22;20344;-82
2022/01/13 17:42:10;;;;;;;16.13;10.48;;;;;;;;;;6340338;22;20049;-83
2022/01/13 17:44:35;;;;;;;61.78;40.45;;;;;;;;;;6339623;22;20410;-83
2022/01/13 17:47:05;;;;;;;11.43;7.95;;;;;;;;;;6339448;22;20033;-83
2022/01/13 17:49:30;;;;;;;17.00;10.35;;;;;;;;;;6339417;22;20006;-83
2022/01/13 17:51:58;;;;;;;11.20;7.40;;;;;;;;;;6339515;22;19999;-83
2022/01/13 17:54:24;;;;;;;15.77;10.00;;;;;;;;;;6311787;22;20003;-82
2022/01/13 17:56:49;;;;;;;20.55;12.95;;;;;;;;;;6339255;22;20044;-83
2022/01/13 17:59:15;;;;;;;80.13;47.45;;;;;;;;;;6311718;22;20003;-84
2022/01/13 18:01:40;;;;;;;13.35;8.48;;;;;;;;;;6311635;22;20007;-83
2022/01/13 18:04:06;;;;;;;44.72;26.45;;;;;;;;;;6339585;22;20068;-83
2022/01/13 18:06:31;;;;;;;90.75;53.45;;;;;;;;;;6339361;22;20002;-82
2022/01/13 18:08:57;;;;;;;33.25;21.65;;;;;;;;;;6339635;22;20007;-83
2022/01/13 18:11:23;;;;;;;9.60;6.22;;;;;;;;;;6339568;22;20430;-82
2022/01/13 18:13:48;;;;;;;11.52;7.03;;;;;;;;;;6339084;22;20044;-83
2022/01/13 18:16:14;;;;;;;20.48;11.77;;;;;;;;;;6339334;22;19998;-83
2022/01/13 18:18:40;;;;;;;14.93;9.93;;;;;;;;;;6339354;22;20003;-83
2022/01/13 18:21:06;;;;;;;20.02;10.70;;;;;;;;;;6339040;22;20010;-82
2022/01/13 18:23:33;;;;;;;21.35;10.30;;;;;;;;;;6311312;22;20091;-84
2022/01/13 18:25:59;;;;;;;16.63;8.70;;;;;;;;;;6339237;22;20003;-83
2022/01/13 18:28:24;;;;;;;19.15;9.82;;;;;;;;;;6338807;22;20025;-84
2022/01/13 18:30:50;;;;;;;25.05;16.20;;;;;;;;;;6338477;22;20011;-82
2022/01/13 18:33:15;;;;;;;19.45;12.98;;;;;;;;;;6339020;22;20369;-82
2022/01/13 18:35:41;;;;;;;11.48;7.10;;;;;;;;;;6339058;22;19998;-82
2022/01/13 18:38:09;;;;;;;12.10;8.38;;;;;;;;;;6339215;22;20014;-83
2022/01/13 18:40:37;;;;;;;6.13;4.60;;;;;;;;;;6311342;22;20090;-83
2022/01/13 18:43:03;;;;;;;10.35;8.63;;;;;;;;;;6339232;22;20022;-84
2022/01/13 18:45:29;;;;;;;5.68;3.95;;;;;;;;;;6339228;22;20068;-83
2022/01/13 18:48:05;;;;;;;6.28;4.40;;;;;;;;;;6312769;22;20007;-83
2022/01/13 18:50:36;;;;;;;5.15;3.67;;;;;;;;;;6339272;22;20485;-84
2022/01/13 18:53:03;;;;;;;6.68;3.80;;;;;;;;;;6339315;22;19998;-83
2022/01/13 18:55:28;;;;;;;6.70;4.10;;;;;;;;;;6339203;22;20485;-83
2022/01/13 18:57:54;;;;;;;14.57;6.90;;;;;;;;;;6339123;22;20034;-83
2022/01/13 19:00:19;;;;;;;10.10;6.30;;;;;;;;;;6338853;22;20010;-83
2022/01/13 19:02:45;;;;;;;16.40;9.13;;;;;;;;;;6339583;22;20098;-83
2022/01/13 19:05:10;;;;;;;14.88;8.77;;;;;;;;;;6339033;22;20002;-82
2022/01/13 19:07:36;;;;;;;11.18;7.57;;;;;;;;;;6338940;22;19999;-82
2022/01/13 19:10:03;;;;;;;12.98;7.97;;;;;;;;;;6338674;22;20003;-84
2022/01/13 19:12:29;;;;;;;14.10;9.32;;;;;;;;;;6338963;22;20065;-82
2022/01/13 19:14:54;;;;;;;13.13;8.85;;;;;;;;;;6338998;22;20030;-81
2022/01/13 19:17:31;;;;;;;16.92;9.05;;;;;;;;;;6339177;22;19999;-81
2022/01/13 19:19:59;;;;;;;7.88;5.18;;;;;;;;;;6339072;22;20141;-85
2022/01/13 19:22:24;;;;;;;8.90;5.20;;;;;;;;;;6339048;22;20003;-84
2022/01/13 19:24:50;;;;;;;10.77;6.75;;;;;;;;;;6311195;22;20003;-84
2022/01/13 19:27:16;;;;;;;8.45;4.82;;;;;;;;;;6340386;22;20026;-81
2022/01/13 19:29:42;;;;;;;8.27;4.80;;;;;;;;;;6340907;22;20079;-82
2022/01/13 19:32:08;;;;;;;8.93;6.70;;;;;;;;;;6313197;22;20034;-82
2022/01/13 19:34:33;;;;;;;10.13;7.18;;;;;;;;;;6313167;22;20007;-82
2022/01/13 19:36:59;;;;;;;9.52;6.60;;;;;;;;;;6340616;22;20002;-81
2022/01/13 19:39:24;;;;;;;65.90;40.30;;;;;;;;;;6340711;22;20002;-82
2022/01/13 19:41:52;;;;;;;36.20;20.98;;;;;;;;;;6339961;22;20014;-81
2022/01/13 19:44:17;;;;;;;14.13;8.15;;;;;;;;;;6341018;22;20002;-82
2022/01/13 19:46:43;;;;;;;10.65;7.03;;;;;;;;;;6312666;22;20439;-81
2022/01/13 19:49:08;;;;;;;11.50;8.18;;;;;;;;;;6312840;22;20007;-81
2022/01/13 19:51:33;;;;;;;15.02;10.40;;;;;;;;;;6340330;22;20410;-81
2022/01/13 19:53:59;;;;;;;13.10;6.47;;;;;;;;;;6340371;22;19998;-80
2022/01/13 19:56:25;;;;;;;7.40;5.20;;;;;;;;;;6340440;22;20005;-81
2022/01/13 19:58:51;;;;;;;6.30;4.32;;;;;;;;;;6340721;22;20003;-80
2022/01/13 20:01:17;;;;;;;4.88;3.90;;;;;;;;;;6340300;22;20036;-80
2022/01/13 20:03:43;;;;;;;5.35;3.72;;;;;;;;;;6340511;22;20483;-82
2022/01/13 20:06:10;;;;;;;7.93;5.10;;;;;;;;;;6340509;22;20003;-81
2022/01/13 20:08:35;;;;;;;8.73;5.80;;;;;;;;;;6340330;22;19995;-81
2022/01/13 20:11:01;;;;;;;10.65;5.90;;;;;;;;;;6340352;22;20007;-81
2022/01/13 20:13:30;;;;;;;10.25;5.80;;;;;;;;;;6340151;22;20011;-81
2022/01/13 20:15:58;;;;;;;8.93;4.97;;;;;;;;;;6340584;22;20078;-81
2022/01/13 20:18:24;;;;;;;7.40;5.20;;;;;;;;;;6340440;22;19999;-81
2022/01/13 20:20:49;;;;;;;13.55;7.35;;;;;;;;;;6340008;22;20027;-81
2022/01/13 20:23:16;;;;;;;16.33;8.40;;;;;;;;;;6340351;22;20002;-81
2022/01/13 20:25:42;;;;;;;14.38;8.65;;;;;;;;;;6340112;22;20027;-81
2022/01/13 20:28:08;;;;;;;19.67;10.05;;;;;;;;;;6340460;22;20370;-82
2022/01/13 20:30:34;;;;;;;17.10;10.05;;;;;;;;;;6340111;22;20027;-81
2022/01/13 20:33:01;;;;;;;10.85;7.03;;;;;;;;;;6340118;22;20317;-81
2022/01/13 20:35:31;;;;;;;12.20;7.55;;;;;;;;;;6340226;22;20002;-81
2022/01/13 20:37:56;;;;;;;;;;;;;;;;;;6312676;22;20338;-81
2022/01/13 20:40:21;;;;;;;5.93;3.63;;;;;;;;;;6312111;22;19911;-81
2022/01/13 20:42:47;;;;;;;7.63;3.85;;;;;;;;;;6340181;22;20325;-81
2022/01/13 20:45:12;;;;;;;10.40;5.50;;;;;;;;;;6340035;22;20010;-81
2022/01/13 20:47:40;;;;;;;11.13;6.13;;;;;;;;;;6340080;22;20007;-81
2022/01/13 20:50:07;;;;;;;8.82;4.95;;;;;;;;;;6340066;22;20014;-81
2022/01/13 20:52:32;;;;;;;6.35;4.68;;;;;;;;;;6340261;22;20014;-81
2022/01/13 20:55:02;;;;;;;8.38;5.95;;;;;;;;;;6340007;22;20007;-81
2022/01/13 20:57:30;;;;;;;8.85;5.57;;;;;;;;;;6339837;22;20376;-82
2022/01/13 20:59:57;;;;;;;8.60;6.18;;;;;;;;;;6340177;22;19995;-81
2022/01/13 21:02:23;;;;;;;11.00;5.85;;;;;;;;;;6339956;22;20329;-81
2022/01/13 21:04:49;;;;;;;9.50;5.80;;;;;;;;;;6339975;22;20078;-81
2022/01/13 21:07:15;;;;;;;7.85;5.32;;;;;;;;;;6339730;22;20003;-81
2022/01/13 21:09:40;;;;;;;6.47;4.07;;;;;;;;;;6312299;22;20329;-81
2022/01/13 21:12:06;;;;;;;6.97;4.20;;;;;;;;;;6340170;22;20003;-81
2022/01/13 21:14:32;;;;;;;9.20;5.68;;;;;;;;;;6339785;22;20018;-81
2022/01/13 21:16:57;;;;;;;7.63;5.50;;;;;;;;;;6339723;22;20002;-82
2022/01/13 21:19:23;;;;;;;8.10;4.82;;;;;;;;;;6339777;22;20026;-81
2022/01/13 21:21:48;;;;;;;6.97;4.35;;;;;;;;;;6339775;22;19999;-81
2022/01/13 21:24:14;;;;;;;8.35;5.55;;;;;;;;;;6311989;22;20401;-81
2022/01/13 21:26:40;;;;;;;9.23;5.22;;;;;;;;;;6339816;22;20436;-81
2022/01/13 21:29:07;;;;;;;8.65;5.22;;;;;;;;;;6312048;22;20458;-81
2022/01/13 21:31:35;;;;;;;8.30;5.38;;;;;;;;;;6339904;22;20041;-81
2022/01/13 21:34:01;;;;;;;10.20;5.25;;;;;;;;;;6311904;22;19998;-81
2022/01/13 21:36:27;;;;;;;8.95;5.53;;;;;;;;;;6339536;22;20005;-81
2022/01/13 21:38:53;;;;;;;9.05;5.20;;;;;;;;;;6340231;22;20032;-81
2022/01/13 21:41:23;;;;;;;7.65;4.30;;;;;;;;;;6339486;22;20022;-81
2022/01/13 21:43:52;;;;;;;5.55;4.80;;;;;;;;;;6339890;22;19999;-81
2022/01/13 21:46:18;;;;;;;7.90;5.22;;;;;;;;;;6311816;22;20003;-81
2022/01/13 21:48:43;;;;;;;6.18;4.05;;;;;;;;;;6339298;22;20007;-81
2022/01/13 21:51:09;;;;;;;5.53;3.50;;;;;;;;;;6339346;22;20074;-81
2022/01/13 21:53:35;;;;;;;3.72;3.33;;;;;;;;;;6339936;22;20321;-81
2022/01/13 21:56:01;;;;;;;6.05;3.70;;;;;;;;;;6339674;22;20003;-80
2022/01/13 21:58:27;;;;;;;4.10;3.35;;;;;;;;;;6339746;22;20080;-81
2022/01/13 22:00:52;;;;;;;6.22;3.88;;;;;;;;;;6339558;22;20358;-81
2022/01/13 22:03:20;;;;;;;5.93;3.80;;;;;;;;;;6339542;22;20115;-81
2022/01/13 22:05:48;;;;;;;4.18;3.03;;;;;;;;;;6339431;22;20003;-81
2022/01/13 22:08:27;;;;;;;5.45;3.95;;;;;;;;;;6339744;22;19999;-81
2022/01/13 22:10:58;;;;;;;6.47;4.33;;;;;;;;;;6339460;22;19995;-80
2022/01/13 22:13:27;;;;;;;;;;;;;;;;;;6340084;22;19999;-81
2022/01/13 22:15:52;;;;;;;5.72;3.63;;;;;;;;;;6311745;22;19938;-81
2022/01/13 22:18:18;;;;;;;7.68;3.80;;;;;;;;;;6339142;22;20072;-81
2022/01/13 22:20:44;;;;;;;6.72;4.53;;;;;;;;;;6339282;22;20013;-81
2022/01/13 22:23:09;;;;;;;7.60;3.80;;;;;;;;;;6339369;22;20413;-81
2022/01/13 22:25:35;;;;;;;5.53;3.50;;;;;;;;;;6339390;22;20473;-81
2022/01/13 22:28:01;;;;;;;4.97;3.47;;;;;;;;;;6311935;22;20450;-81
2022/01/13 22:30:27;;;;;;;5.55;3.63;;;;;;;;;;6339324;22;19994;-81
2022/01/13 22:32:52;;;;;;;5.05;3.78;;;;;;;;;;6339337;22;20005;-81
2022/01/13 22:35:18;;;;;;;5.78;3.60;;;;;;;;;;6339599;22;20013;-81
2022/01/13 22:37:43;;;;;;;6.38;4.43;;;;;;;;;;6339822;22;20033;-81
2022/01/13 22:40:11;;;;;;;5.03;3.38;;;;;;;;;;6340455;22;20015;-82
2022/01/13 22:42:37;;;;;;;7.60;4.00;;;;;;;;;;6312821;22;19999;-81
2022/01/13 22:45:04;;;;;;;6.45;3.92;;;;;;;;;;6340330;22;20029;-82
2022/01/13 22:47:30;;;;;;;6.75;3.92;;;;;;;;;;6340015;22;19995;-80
2022/01/13 22:49:58;;;;;;;7.05;4.32;;;;;;;;;;6339052;22;20011;-80
2022/01/13 22:52:24;;;;;;;8.05;3.70;;;;;;;;;;6340645;22;19999;-80
2022/01/13 22:54:49;;;;;;;6.63;4.38;;;;;;;;;;6340073;22;19999;-81
2022/01/13 22:57:15;;;;;;;6.90;3.70;;;;;;;;;;6340354;22;20032;-82
2022/01/13 22:59:40;;;;;;;5.05;3.40;;;;;;;;;;6340055;22;20048;-81
2022/01/13 23:02:06;;;;;;;4.28;2.65;;;;;;;;;;6341384;22;20456;-82
2022/01/13 23:04:31;;;;;;;3.70;2.88;;;;;;;;;;6341669;22;20479;-81
2022/01/13 23:06:56;;;;;;;4.38;3.00;;;;;;;;;;6341540;22;20082;-82
2022/01/13 23:09:22;;;;;;;4.30;2.60;;;;;;;;;;6341400;22;19999;-80
2022/01/13 23:11:47;;;;;;;3.22;2.15;;;;;;;;;;6341579;22;20006;-84
2022/01/13 23:14:16;;;;;;;4.40;3.17;;;;;;;;;;6341449;22;20074;-83
